sensor_id;sensor_type;location;lat;lon;timestamp;P1;durP1;ratioP1;P2;durP2;ratioP2
73315;SDS011;61545;53.726;-0.444;2022-09-09T00:03:02;7.4;;;2.6;;
73315;SDS011;61545;53.726;-0.444;2022-09-09T00:07:59;8.7;;;2.8;;
73315;SDS011;61545;53.726;-0.444;2022-09-09T00:13:02;6.8;;;2.6;;
73315;SDS011;61545;53.726;-0.444;2022-09-09T00:18:01;7.3;;;2.8;;
73315;SDS011;61545;53.726;-0.444;2022-09-09T00:23:02;7.6;;;2.4;;
73315;SDS011;61545;53.726;-0.444;2022-09-09T00:27:58;7.6;;;2.4;;
73315;SDS011;61545;53.726;-0.444;2022-09-09T00:33:00;7.1;;;2.5;;
73315;SDS011;61545;53.726;-0.444;2022-09-09T00:38:01;7.1;;;2.1;;
73315;SDS011;61545;53.726;-0.444;2022-09-09T00:43:09;8.3;;;2.3;;
73315;SDS011;61545;53.726;-0.444;2022-09-09T00:47:58;11.1;;;2.6;;
73315;SDS011;61545;53.726;-0.444;2022-09-09T00:53:05;7.3;;;2.4;;
73315;SDS011;61545;53.726;-0.444;2022-09-09T00:57:59;7.3;;;2.4;;
73315;SDS011;61545;53.726;-0.444;2022-09-09T01:03:07;6.6;;;2.3;;
73315;SDS011;61545;53.726;-0.444;2022-09-09T01:08:00;8.3;;;2.9;;
73315;SDS011;61545;53.726;-0.444;2022-09-09T01:12:58;10.1;;;3;;
73315;SDS011;61545;53.726;-0.444;2022-09-09T01:18:00;7.5;;;2.9;;
73315;SDS011;61545;53.726;-0.444;2022-09-09T01:23:06;17.0;;;3.8;;
73315;SDS011;61545;53.726;-0.444;2022-09-09T01:28:00;17.0;;;3.8;;
73315;SDS011;61545;53.726;-0.444;2022-09-09T01:32:58;9.3;;;4.1;;
73315;SDS011;61545;53.726;-0.444;2022-09-09T01:37:58;7.0;;;3.8;;
73315;SDS011;61545;53.726;-0.444;2022-09-09T01:42:58;10.8;;;5;;
73315;SDS011;61545;53.726;-0.444;2022-09-09T01:47:59;8.8;;;4.8;;
73315;SDS011;61545;53.726;-0.444;2022-09-09T01:52:59;10.1;;;5.3;;
73315;SDS011;61545;53.726;-0.444;2022-09-09T01:58:07;10.1;;;5.3;;
73315;SDS011;61545;53.726;-0.444;2022-09-09T02:03:00;11.9;;;5.9;;
73315;SDS011;61545;53.726;-0.444;2022-09-09T02:08:00;10.9;;;5.9;;
73315;SDS011;61545;53.726;-0.444;2022-09-09T02:13:01;9.7;;;5.4;;
73315;SDS011;61545;53.726;-0.444;2022-09-09T02:17:58;12.0;;;5.7;;
73315;SDS011;61545;53.726;-0.444;2022-09-09T02:22:58;12.1;;;6;;
73315;SDS011;61545;53.726;-0.444;2022-09-09T02:27:58;12.1;;;6;;
73315;SDS011;61545;53.726;-0.444;2022-09-09T02:32:58;11.7;;;5.6;;
73315;SDS011;61545;53.726;-0.444;2022-09-09T02:37:59;14.3;;;6.1;;
73315;SDS011;61545;53.726;-0.444;2022-09-09T02:42:58;13.0;;;5.8;;
73315;SDS011;61545;53.726;-0.444;2022-09-09T02:48:00;12.8;;;5.8;;
73315;SDS011;61545;53.726;-0.444;2022-09-09T02:53:04;11.0;;;5.1;;
73315;SDS011;61545;53.726;-0.444;2022-09-09T02:57:58;11.0;;;5.1;;
73315;SDS011;61545;53.726;-0.444;2022-09-09T03:02:59;13.1;;;5;;
73315;SDS011;61545;53.726;-0.444;2022-09-09T03:07:58;12.3;;;5.5;;
73315;SDS011;61545;53.726;-0.444;2022-09-09T03:12:58;12.8;;;5.3;;
73315;SDS011;61545;53.726;-0.444;2022-09-09T03:17:59;11.0;;;4.4;;
73315;SDS011;61545;53.726;-0.444;2022-09-09T03:22:59;6.6;;;4.4;;
73315;SDS011;61545;53.726;-0.444;2022-09-09T03:27:59;6.6;;;4.4;;
73315;SDS011;61545;53.726;-0.444;2022-09-09T03:32:59;8.9;;;4.3;;
73315;SDS011;61545;53.726;-0.444;2022-09-09T03:37:58;6.1;;;3.7;;
73315;SDS011;61545;53.726;-0.444;2022-09-09T03:42:58;6.8;;;4;;
73315;SDS011;61545;53.726;-0.444;2022-09-09T03:47:58;8.1;;;4;;
73315;SDS011;61545;53.726;-0.444;2022-09-09T03:52:59;12.6;;;4;;
73315;SDS011;61545;53.726;-0.444;2022-09-09T03:57:58;12.6;;;4;;
73315;SDS011;61545;53.726;-0.444;2022-09-09T04:02:58;8.4;;;3.4;;
73315;SDS011;61545;53.726;-0.444;2022-09-09T04:07:59;6.7;;;3.6;;
73315;SDS011;61545;53.726;-0.444;2022-09-09T04:12:59;18.1;;;3.3;;
73315;SDS011;61545;53.726;-0.444;2022-09-09T04:17:59;11.3;;;3.5;;
73315;SDS011;61545;53.726;-0.444;2022-09-09T04:22:58;11.3;;;3.5;;
73315;SDS011;61545;53.726;-0.444;2022-09-09T04:27:58;10.9;;;3.8;;
73315;SDS011;61545;53.726;-0.444;2022-09-09T04:32:59;9.0;;;4.9;;
73315;SDS011;61545;53.726;-0.444;2022-09-09T04:37:59;11.9;;;5.8;;
73315;SDS011;61545;53.726;-0.444;2022-09-09T04:42:59;14.7;;;6.4;;
73315;SDS011;61545;53.726;-0.444;2022-09-09T04:47:59;16.8;;;7.7;;
73315;SDS011;61545;53.726;-0.444;2022-09-09T04:53:00;16.8;;;7.7;;
73315;SDS011;61545;53.726;-0.444;2022-09-09T04:58:03;25.8;;;7.7;;
73315;SDS011;61545;53.726;-0.444;2022-09-09T05:03:02;18.5;;;7.4;;
73315;SDS011;61545;53.726;-0.444;2022-09-09T05:08:01;15.9;;;6.2;;
73315;SDS011;61545;53.726;-0.444;2022-09-09T05:12:59;11.8;;;5.1;;
73315;SDS011;61545;53.726;-0.444;2022-09-09T05:17:59;7.6;;;4;;
73315;SDS011;61545;53.726;-0.444;2022-09-09T05:22:59;7.6;;;4;;
73315;SDS011;61545;53.726;-0.444;2022-09-09T05:27:59;8.1;;;4.4;;
73315;SDS011;61545;53.726;-0.444;2022-09-09T05:32:59;9.0;;;4;;
73315;SDS011;61545;53.726;-0.444;2022-09-09T05:37:59;7.9;;;3.8;;
73315;SDS011;61545;53.726;-0.444;2022-09-09T05:43:00;9.5;;;3.6;;
73315;SDS011;61545;53.726;-0.444;2022-09-09T05:47:59;5.9;;;3.5;;
73315;SDS011;61545;53.726;-0.444;2022-09-09T05:52:59;5.9;;;3.5;;
73315;SDS011;61545;53.726;-0.444;2022-09-09T05:57:59;7.3;;;3.8;;
73315;SDS011;61545;53.726;-0.444;2022-09-09T06:02:59;11.0;;;4.5;;
73315;SDS011;61545;53.726;-0.444;2022-09-09T06:07:59;11.9;;;5.2;;
73315;SDS011;61545;53.726;-0.444;2022-09-09T06:12:59;14.3;;;5.1;;
73315;SDS011;61545;53.726;-0.444;2022-09-09T06:17:59;20.3;;;5.7;;
73315;SDS011;61545;53.726;-0.444;2022-09-09T06:22:59;20.3;;;5.7;;
73315;SDS011;61545;53.726;-0.444;2022-09-09T06:27:59;13.0;;;5.1;;
73315;SDS011;61545;53.726;-0.444;2022-09-09T06:32:59;14.4;;;5.8;;
73315;SDS011;61545;53.726;-0.444;2022-09-09T06:37:59;8.6;;;5.1;;
73315;SDS011;61545;53.726;-0.444;2022-09-09T06:42:59;10.3;;;5.9;;
73315;SDS011;61545;53.726;-0.444;2022-09-09T06:47:59;12.0;;;6.2;;
73315;SDS011;61545;53.726;-0.444;2022-09-09T06:52:59;12.0;;;6.2;;
73315;SDS011;61545;53.726;-0.444;2022-09-09T06:57:59;16.1;;;6.3;;
73315;SDS011;61545;53.726;-0.444;2022-09-09T07:02:59;12.7;;;7.1;;
73315;SDS011;61545;53.726;-0.444;2022-09-09T07:07:59;10.5;;;6.3;;
73315;SDS011;61545;53.726;-0.444;2022-09-09T07:12:59;10.8;;;6.9;;
73315;SDS011;61545;53.726;-0.444;2022-09-09T07:18:00;12.8;;;6.5;;
73315;SDS011;61545;53.726;-0.444;2022-09-09T07:22:59;12.8;;;6.5;;
73315;SDS011;61545;53.726;-0.444;2022-09-09T07:27:59;15.6;;;7.1;;
73315;SDS011;61545;53.726;-0.444;2022-09-09T07:32:59;15.7;;;7.1;;
73315;SDS011;61545;53.726;-0.444;2022-09-09T07:38:00;13.7;;;7.5;;
73315;SDS011;61545;53.726;-0.444;2022-09-09T07:42:59;13.6;;;7.6;;
73315;SDS011;61545;53.726;-0.444;2022-09-09T07:47:59;17.0;;;7.7;;
73315;SDS011;61545;53.726;-0.444;2022-09-09T07:52:59;17.0;;;7.7;;
73315;SDS011;61545;53.726;-0.444;2022-09-09T07:57:59;15.4;;;7.1;;
73315;SDS011;61545;53.726;-0.444;2022-09-09T08:02:59;17.6;;;7.3;;
73315;SDS011;61545;53.726;-0.444;2022-09-09T08:07:59;20.2;;;7.3;;
73315;SDS011;61545;53.726;-0.444;2022-09-09T08:12:59;18.3;;;6.9;;
73315;SDS011;61545;53.726;-0.444;2022-09-09T08:17:59;14.8;;;6.3;;
73315;SDS011;61545;53.726;-0.444;2022-09-09T08:22:59;14.8;;;6.3;;
73315;SDS011;61545;53.726;-0.444;2022-09-09T08:27:59;12.0;;;4.2;;
73315;SDS011;61545;53.726;-0.444;2022-09-09T08:32:59;18.6;;;4.6;;
73315;SDS011;61545;53.726;-0.444;2022-09-09T08:37:59;16.7;;;3.1;;
73315;SDS011;61545;53.726;-0.444;2022-09-09T08:42:59;8.6;;;2.3;;
73315;SDS011;61545;53.726;-0.444;2022-09-09T08:48:09;7.2;;;2;;
73315;SDS011;61545;53.726;-0.444;2022-09-09T08:53:01;7.2;;;2;;
73315;SDS011;61545;53.726;-0.444;2022-09-09T08:58:02;6.9;;;1.9;;
73315;SDS011;61545;53.726;-0.444;2022-09-09T09:03:01;12.4;;;2.1;;
73315;SDS011;61545;53.726;-0.444;2022-09-09T09:08:03;8.1;;;1.9;;
73315;SDS011;61545;53.726;-0.444;2022-09-09T09:12:59;8.5;;;2;;
73315;SDS011;61545;53.726;-0.444;2022-09-09T09:17:59;9.0;;;2.1;;
73315;SDS011;61545;53.726;-0.444;2022-09-09T09:22:59;9.0;;;2.1;;
73315;SDS011;61545;53.726;-0.444;2022-09-09T09:27:59;10.4;;;1.9;;
73315;SDS011;61545;53.726;-0.444;2022-09-09T09:33:00;7.2;;;1.9;;
73315;SDS011;61545;53.726;-0.444;2022-09-09T09:37:59;7.0;;;1.9;;
73315;SDS011;61545;53.726;-0.444;2022-09-09T09:42:59;8.7;;;1.6;;
73315;SDS011;61545;53.726;-0.444;2022-09-09T09:48:00;8.5;;;1.7;;
73315;SDS011;61545;53.726;-0.444;2022-09-09T09:53:00;8.5;;;1.7;;
73315;SDS011;61545;53.726;-0.444;2022-09-09T09:58:01;7.1;;;1.8;;
73315;SDS011;61545;53.726;-0.444;2022-09-09T10:02:59;7.6;;;1.6;;
73315;SDS011;61545;53.726;-0.444;2022-09-09T10:08:02;9.6;;;2.1;;
73315;SDS011;61545;53.726;-0.444;2022-09-09T10:13:00;12.6;;;2;;
73315;SDS011;61545;53.726;-0.444;2022-09-09T10:18:04;12.4;;;1.7;;
73315;SDS011;61545;53.726;-0.444;2022-09-09T10:23:04;12.4;;;1.7;;
73315;SDS011;61545;53.726;-0.444;2022-09-09T10:28:13;7.1;;;1.4;;
73315;SDS011;61545;53.726;-0.444;2022-09-09T10:33:02;6.9;;;1.3;;
73315;SDS011;61545;53.726;-0.444;2022-09-09T10:38:08;9.8;;;1.5;;
73315;SDS011;61545;53.726;-0.444;2022-09-09T10:43:04;6.2;;;1.2;;
73315;SDS011;61545;53.726;-0.444;2022-09-09T10:48:13;4.5;;;1.1;;
73315;SDS011;61545;53.726;-0.444;2022-09-09T10:53:01;4.5;;;1.1;;
73315;SDS011;61545;53.726;-0.444;2022-09-09T10:57:59;8.3;;;1.4;;
73315;SDS011;61545;53.726;-0.444;2022-09-09T11:03:00;6.7;;;1.5;;
73315;SDS011;61545;53.726;-0.444;2022-09-09T11:08:00;6.0;;;1.4;;
73315;SDS011;61545;53.726;-0.444;2022-09-09T11:13:01;8.3;;;1.7;;
73315;SDS011;61545;53.726;-0.444;2022-09-09T11:18:00;5.8;;;1.3;;
73315;SDS011;61545;53.726;-0.444;2022-09-09T11:23:00;5.8;;;1.3;;
73315;SDS011;61545;53.726;-0.444;2022-09-09T11:28:16;5.3;;;1.1;;
73315;SDS011;61545;53.726;-0.444;2022-09-09T11:33:09;6.5;;;1.3;;
73315;SDS011;61545;53.726;-0.444;2022-09-09T11:38:07;10.2;;;1.4;;
73315;SDS011;61545;53.726;-0.444;2022-09-09T11:43:01;7.3;;;1.4;;
73315;SDS011;61545;53.726;-0.444;2022-09-09T11:47:59;6.6;;;1.4;;
73315;SDS011;61545;53.726;-0.444;2022-09-09T11:53:05;6.6;;;1.4;;
73315;SDS011;61545;53.726;-0.444;2022-09-09T11:57:59;5.0;;;1.2;;
73315;SDS011;61545;53.726;-0.444;2022-09-09T12:02:59;6.9;;;1.2;;
73315;SDS011;61545;53.726;-0.444;2022-09-09T12:07:59;6.4;;;1.5;;
73315;SDS011;61545;53.726;-0.444;2022-09-09T12:13:07;8.6;;;1.2;;
73315;SDS011;61545;53.726;-0.444;2022-09-09T12:17:59;6.5;;;1.2;;
73315;SDS011;61545;53.726;-0.444;2022-09-09T12:23:10;6.5;;;1.2;;
73315;SDS011;61545;53.726;-0.444;2022-09-09T12:28:04;8.1;;;1.3;;
73315;SDS011;61545;53.726;-0.444;2022-09-09T12:33:01;5.6;;;1.3;;
73315;SDS011;61545;53.726;-0.444;2022-09-09T12:38:00;4.3;;;1.1;;
73315;SDS011;61545;53.726;-0.444;2022-09-09T12:42:59;5.7;;;1.3;;
73315;SDS011;61545;53.726;-0.444;2022-09-09T12:48:00;7.2;;;1.2;;
73315;SDS011;61545;53.726;-0.444;2022-09-09T12:53:00;7.2;;;1.2;;
73315;SDS011;61545;53.726;-0.444;2022-09-09T12:57:59;4.9;;;1.2;;
73315;SDS011;61545;53.726;-0.444;2022-09-09T13:03:00;6.9;;;1.1;;
73315;SDS011;61545;53.726;-0.444;2022-09-09T13:08:00;8.0;;;1.2;;
73315;SDS011;61545;53.726;-0.444;2022-09-09T13:12:59;8.2;;;1.4;;
73315;SDS011;61545;53.726;-0.444;2022-09-09T13:18:02;10.7;;;1.9;;
73315;SDS011;61545;53.726;-0.444;2022-09-09T13:22:59;10.7;;;1.9;;
73315;SDS011;61545;53.726;-0.444;2022-09-09T13:28:00;8.1;;;1.7;;
73315;SDS011;61545;53.726;-0.444;2022-09-09T13:33:01;9.9;;;1.7;;
73315;SDS011;61545;53.726;-0.444;2022-09-09T13:37:59;8.9;;;1.6;;
73315;SDS011;61545;53.726;-0.444;2022-09-09T13:42:59;12.0;;;1.9;;
73315;SDS011;61545;53.726;-0.444;2022-09-09T13:47:59;6.6;;;1.4;;
73315;SDS011;61545;53.726;-0.444;2022-09-09T13:52:59;6.6;;;1.4;;
73315;SDS011;61545;53.726;-0.444;2022-09-09T13:57:59;5.3;;;1.3;;
73315;SDS011;61545;53.726;-0.444;2022-09-09T14:02:59;6.8;;;1.2;;
73315;SDS011;61545;53.726;-0.444;2022-09-09T14:07:59;6.9;;;1.2;;
73315;SDS011;61545;53.726;-0.444;2022-09-09T14:12:59;5.6;;;1.1;;
73315;SDS011;61545;53.726;-0.444;2022-09-09T14:17:59;8.0;;;1.6;;
73315;SDS011;61545;53.726;-0.444;2022-09-09T14:22:59;8.0;;;1.6;;
73315;SDS011;61545;53.726;-0.444;2022-09-09T14:27:59;9.9;;;1.9;;
73315;SDS011;61545;53.726;-0.444;2022-09-09T14:32:59;6.3;;;1.3;;
73315;SDS011;61545;53.726;-0.444;2022-09-09T14:37:59;4.4;;;1.1;;
73315;SDS011;61545;53.726;-0.444;2022-09-09T14:42:59;5.0;;;1.4;;
73315;SDS011;61545;53.726;-0.444;2022-09-09T14:47:59;5.9;;;1;;
73315;SDS011;61545;53.726;-0.444;2022-09-09T14:52:59;5.9;;;1;;
73315;SDS011;61545;53.726;-0.444;2022-09-09T14:57:59;5.5;;;1.3;;
73315;SDS011;61545;53.726;-0.444;2022-09-09T15:02:59;6.5;;;1.4;;
73315;SDS011;61545;53.726;-0.444;2022-09-09T15:07:59;8.0;;;1.5;;
73315;SDS011;61545;53.726;-0.444;2022-09-09T15:12:59;5.7;;;1.3;;
73315;SDS011;61545;53.726;-0.444;2022-09-09T15:17:59;7.0;;;1.3;;
73315;SDS011;61545;53.726;-0.444;2022-09-09T15:22:59;7.0;;;1.3;;
73315;SDS011;61545;53.726;-0.444;2022-09-09T15:27:59;5.5;;;1.2;;
73315;SDS011;61545;53.726;-0.444;2022-09-09T15:32:59;6.1;;;1.5;;
73315;SDS011;61545;53.726;-0.444;2022-09-09T15:38:01;9.2;;;1.8;;
73315;SDS011;61545;53.726;-0.444;2022-09-09T15:42:59;6.1;;;1.6;;
73315;SDS011;61545;53.726;-0.444;2022-09-09T15:47:59;6.1;;;1.6;;
73315;SDS011;61545;53.726;-0.444;2022-09-09T15:52:59;6.1;;;1.6;;
73315;SDS011;61545;53.726;-0.444;2022-09-09T15:57:59;7.4;;;1.5;;
73315;SDS011;61545;53.726;-0.444;2022-09-09T16:02:59;5.1;;;1.2;;
73315;SDS011;61545;53.726;-0.444;2022-09-09T16:07:59;2.9;;;1;;
73315;SDS011;61545;53.726;-0.444;2022-09-09T16:12:59;4.7;;;1;;
73315;SDS011;61545;53.726;-0.444;2022-09-09T16:17:59;5.3;;;1.2;;
73315;SDS011;61545;53.726;-0.444;2022-09-09T16:22:59;5.3;;;1.2;;
73315;SDS011;61545;53.726;-0.444;2022-09-09T16:27:59;4.9;;;1.3;;
73315;SDS011;61545;53.726;-0.444;2022-09-09T16:32:59;5.5;;;1;;
73315;SDS011;61545;53.726;-0.444;2022-09-09T16:37:59;4.4;;;1;;
73315;SDS011;61545;53.726;-0.444;2022-09-09T16:42:59;5.3;;;1.2;;
73315;SDS011;61545;53.726;-0.444;2022-09-09T16:47:59;5.5;;;1.1;;
73315;SDS011;61545;53.726;-0.444;2022-09-09T16:52:59;5.5;;;1.1;;
73315;SDS011;61545;53.726;-0.444;2022-09-09T16:57:59;3.7;;;1.2;;
73315;SDS011;61545;53.726;-0.444;2022-09-09T17:02:59;8.3;;;1.4;;
73315;SDS011;61545;53.726;-0.444;2022-09-09T17:07:59;10.4;;;1.3;;
73315;SDS011;61545;53.726;-0.444;2022-09-09T17:12:59;7.3;;;1.3;;
73315;SDS011;61545;53.726;-0.444;2022-09-09T17:17:59;4.7;;;1.3;;
73315;SDS011;61545;53.726;-0.444;2022-09-09T17:22:59;4.7;;;1.3;;
73315;SDS011;61545;53.726;-0.444;2022-09-09T17:27:59;4.6;;;1;;
73315;SDS011;61545;53.726;-0.444;2022-09-09T17:32:59;6.4;;;1.2;;
73315;SDS011;61545;53.726;-0.444;2022-09-09T17:37:59;4.9;;;1;;
73315;SDS011;61545;53.726;-0.444;2022-09-09T17:42:59;6.8;;;1.1;;
73315;SDS011;61545;53.726;-0.444;2022-09-09T17:47:59;5.1;;;1.1;;
73315;SDS011;61545;53.726;-0.444;2022-09-09T17:52:59;5.1;;;1.1;;
73315;SDS011;61545;53.726;-0.444;2022-09-09T17:57:59;6.4;;;1.3;;
73315;SDS011;61545;53.726;-0.444;2022-09-09T18:02:59;5.7;;;1.2;;
73315;SDS011;61545;53.726;-0.444;2022-09-09T18:07:59;5.7;;;0.9;;
73315;SDS011;61545;53.726;-0.444;2022-09-09T18:12:59;4.5;;;1;;
73315;SDS011;61545;53.726;-0.444;2022-09-09T18:17:59;6.6;;;1.2;;
73315;SDS011;61545;53.726;-0.444;2022-09-09T18:22:59;6.6;;;1.2;;
73315;SDS011;61545;53.726;-0.444;2022-09-09T18:27:59;4.2;;;1.3;;
73315;SDS011;61545;53.726;-0.444;2022-09-09T18:32:59;4.2;;;1.1;;
73315;SDS011;61545;53.726;-0.444;2022-09-09T18:37:59;7.0;;;1.2;;
73315;SDS011;61545;53.726;-0.444;2022-09-09T18:42:59;7.7;;;1.5;;
73315;SDS011;61545;53.726;-0.444;2022-09-09T18:47:59;8.0;;;1.5;;
73315;SDS011;61545;53.726;-0.444;2022-09-09T18:52:59;8.0;;;1.5;;
73315;SDS011;61545;53.726;-0.444;2022-09-09T18:57:59;5.9;;;0.9;;
73315;SDS011;61545;53.726;-0.444;2022-09-09T19:02:59;11.3;;;1.7;;
73315;SDS011;61545;53.726;-0.444;2022-09-09T19:07:59;7.0;;;1.3;;
73315;SDS011;61545;53.726;-0.444;2022-09-09T19:12:59;8.4;;;1.6;;
73315;SDS011;61545;53.726;-0.444;2022-09-09T19:17:59;8.8;;;1.7;;
73315;SDS011;61545;53.726;-0.444;2022-09-09T19:22:59;8.8;;;1.7;;
73315;SDS011;61545;53.726;-0.444;2022-09-09T19:27:59;10.4;;;1.6;;
73315;SDS011;61545;53.726;-0.444;2022-09-09T19:32:59;14.4;;;5;;
73315;SDS011;61545;53.726;-0.444;2022-09-09T19:37:59;15.1;;;3.5;;
73315;SDS011;61545;53.726;-0.444;2022-09-09T19:42:59;8.8;;;2.4;;
73315;SDS011;61545;53.726;-0.444;2022-09-09T19:47:59;15.0;;;4.7;;
73315;SDS011;61545;53.726;-0.444;2022-09-09T19:52:59;15.0;;;4.7;;
73315;SDS011;61545;53.726;-0.444;2022-09-09T19:57:59;10.0;;;2.6;;
73315;SDS011;61545;53.726;-0.444;2022-09-09T20:02:59;10.1;;;1.9;;
73315;SDS011;61545;53.726;-0.444;2022-09-09T20:07:59;8.7;;;1.8;;
73315;SDS011;61545;53.726;-0.444;2022-09-09T20:12:59;11.1;;;1.8;;
73315;SDS011;61545;53.726;-0.444;2022-09-09T20:17:59;9.7;;;2.1;;
73315;SDS011;61545;53.726;-0.444;2022-09-09T20:22:59;9.7;;;2.1;;
73315;SDS011;61545;53.726;-0.444;2022-09-09T20:27:59;10.4;;;2;;
73315;SDS011;61545;53.726;-0.444;2022-09-09T20:32:59;12.5;;;1.9;;
73315;SDS011;61545;53.726;-0.444;2022-09-09T20:37:59;10.1;;;1.8;;
73315;SDS011;61545;53.726;-0.444;2022-09-09T20:42:59;12.1;;;2.3;;
73315;SDS011;61545;53.726;-0.444;2022-09-09T20:47:59;12.1;;;2.3;;
73315;SDS011;61545;53.726;-0.444;2022-09-09T20:52:59;11.9;;;2.4;;
73315;SDS011;61545;53.726;-0.444;2022-09-09T20:57:59;11.9;;;1.8;;
73315;SDS011;61545;53.726;-0.444;2022-09-09T21:02:59;14.0;;;2;;
73315;SDS011;61545;53.726;-0.444;2022-09-09T21:07:59;13.6;;;2;;
73315;SDS011;61545;53.726;-0.444;2022-09-09T21:12:59;11.1;;;1.8;;
73315;SDS011;61545;53.726;-0.444;2022-09-09T21:17:59;11.1;;;1.8;;
73315;SDS011;61545;53.726;-0.444;2022-09-09T21:22:59;11.7;;;1.9;;
73315;SDS011;61545;53.726;-0.444;2022-09-09T21:27:59;12.7;;;1.8;;
73315;SDS011;61545;53.726;-0.444;2022-09-09T21:32:59;8.1;;;2;;
73315;SDS011;61545;53.726;-0.444;2022-09-09T21:37:59;13.6;;;2.1;;
73315;SDS011;61545;53.726;-0.444;2022-09-09T21:42:59;12.0;;;1.7;;
73315;SDS011;61545;53.726;-0.444;2022-09-09T21:47:59;12.0;;;1.7;;
73315;SDS011;61545;53.726;-0.444;2022-09-09T21:52:59;10.6;;;2;;
73315;SDS011;61545;53.726;-0.444;2022-09-09T21:57:59;12.3;;;1.7;;
73315;SDS011;61545;53.726;-0.444;2022-09-09T22:02:59;9.4;;;1.8;;
73315;SDS011;61545;53.726;-0.444;2022-09-09T22:07:59;11.5;;;1.5;;
73315;SDS011;61545;53.726;-0.444;2022-09-09T22:12:59;7.1;;;1.3;;
73315;SDS011;61545;53.726;-0.444;2022-09-09T22:17:59;7.1;;;1.3;;
73315;SDS011;61545;53.726;-0.444;2022-09-09T22:22:59;13.1;;;1.6;;
73315;SDS011;61545;53.726;-0.444;2022-09-09T22:27:59;9.2;;;1.5;;
73315;SDS011;61545;53.726;-0.444;2022-09-09T22:32:59;10.1;;;1.6;;
73315;SDS011;61545;53.726;-0.444;2022-09-09T22:37:59;6.1;;;1.2;;
73315;SDS011;61545;53.726;-0.444;2022-09-09T22:42:59;8.5;;;1.3;;
73315;SDS011;61545;53.726;-0.444;2022-09-09T22:47:59;8.5;;;1.3;;
73315;SDS011;61545;53.726;-0.444;2022-09-09T22:52:59;12.2;;;1.6;;
73315;SDS011;61545;53.726;-0.444;2022-09-09T22:57:59;8.6;;;1.4;;
73315;SDS011;61545;53.726;-0.444;2022-09-09T23:02:59;8.0;;;1.5;;
73315;SDS011;61545;53.726;-0.444;2022-09-09T23:07:59;13.0;;;1.7;;
73315;SDS011;61545;53.726;-0.444;2022-09-09T23:12:59;14.3;;;1.8;;
73315;SDS011;61545;53.726;-0.444;2022-09-09T23:17:59;14.3;;;1.8;;
73315;SDS011;61545;53.726;-0.444;2022-09-09T23:22:59;10.4;;;1.8;;
73315;SDS011;61545;53.726;-0.444;2022-09-09T23:27:59;8.7;;;1.7;;
73315;SDS011;61545;53.726;-0.444;2022-09-09T23:32:59;7.6;;;1.5;;
73315;SDS011;61545;53.726;-0.444;2022-09-09T23:37:59;8.8;;;1.7;;
73315;SDS011;61545;53.726;-0.444;2022-09-09T23:42:59;11.7;;;1.8;;
73315;SDS011;61545;53.726;-0.444;2022-09-09T23:47:59;11.7;;;1.8;;
73315;SDS011;61545;53.726;-0.444;2022-09-09T23:52:59;7.4;;;1.6;;
73315;SDS011;61545;53.726;-0.444;2022-09-09T23:57:59;8.3;;;1.6;;
